Flight Track Log - Related Links

Times and Time Zones

All times are in EST time to prevent confusion due to time zone crossing. See the N53NW flight status page for this flight to view local times or setup timezone preferences in your user account.

Time Position Orientation Groundspeed Altitude Reporting Facility
EST Latitude Longitude Course Direction KTS MPH feet Rate Location/Type
Sun 08:15:15 AM 42.4667 -71.3167 209° Southwest 189 217 1,200  Level KA90
Sun 08:16:39 AM 42.4000 -71.3667 209° Southwest 226 260 3,800 3,038 Climbing KA90
Sun 08:17:51 AM 42.3314 -71.3783 187° South 237 273 9,100 4,500 Climbing Boston Center
Sun 08:18:51 AM 42.2711 -71.3000 136° Southeast 299 344 13,700 3,124 Climbing Boston Center
Sun 08:19:52 AM 42.2092 -71.2197 136° Southeast 307 353 15,400 2,508 Climbing Boston Center
Sun 08:20:53 AM 42.1417 -71.1322 136° Southeast 333 383 18,800 3,174 Climbing Boston Center
Sun 08:21:53 AM 42.0700 -71.0400 136° Southeast 359 413 21,800 1,587 Climbing Boston Center
Sun 08:22:54 AM 41.9944 -70.9447 137° Southeast 371 427 22,000 99 Climbing Boston Center
Sun 08:23:54 AM 41.9214 -70.8514 136° Southeast 367 422 22,000  Level Boston Center
Sun 08:24:55 AM 41.8453 -70.7792 145° Southeast 336 387 22,000  Level Boston Center
Sun 08:25:56 AM 41.7764 -70.8119 200° South 266 306 22,000  Level Boston Center
Sun 08:26:56 AM 41.7139 -70.8547 207° Southwest 256 295 22,000  Level Boston Center
Sun 08:27:57 AM 41.6497 -70.8956 205° Southwest 256 295 22,000  Level Boston Center
Sun 08:28:58 AM 41.5861 -70.9383 207° Southwest 256 295 22,000  Level Boston Center
Sun 08:29:58 AM 41.5311 -70.9922 216° Southwest 253 291 22,000  Level Boston Center
Sun 08:30:59 AM 41.4803 -71.0736 230° Southwest 240 276 22,000  Level Boston Center
Sun 08:32:00 AM 41.4367 -71.1414 229° Southwest 242 278 22,000  Level Boston Center
Sun 08:33:00 AM 41.3950 -71.2103 231° Southwest 241 277 22,000  Level Boston Center
Sun 08:34:01 AM 41.3550 -71.2747 230° Southwest 241 277 22,000  Level Boston Center
Sun 08:35:01 AM 41.3117 -71.3433 230° Southwest 242 278 22,000  Level Boston Center
Sun 08:36:02 AM 41.2669 -71.4178 231° Southwest 242 278 22,000  Level Boston Center
Sun 08:37:02 AM 41.2239 -71.4869 230° Southwest 244 281 22,000  Level Boston Center
Sun 08:38:03 AM 41.1803 -71.5567 230° Southwest 245 282 22,000  Level Boston Center
Sun 08:39:04 AM 41.1394 -71.6217 230° Southwest 245 282 22,000  Level Boston Center
Sun 08:40:04 AM 41.0958 -71.6906 230° Southwest 244 281 22,000  Level Boston Center
Sun 08:41:05 AM 41.0528 -71.7606 231° Southwest 245 282 22,000  Level Boston Center
Sun 08:42:05 AM 41.0094 -71.8297 230° Southwest 244 281 22,000  Level Boston Center
Sun 08:43:06 AM 40.9614 -71.9028 229° Southwest 247 284 22,000  Level Boston Center
Sun 08:44:07 AM 40.9172 -71.9733 230° Southwest 249 287 22,000  Level Boston Center
Sun 08:45:07 AM 40.8722 -72.0436 230° Southwest 251 289 22,000  Level Boston Center
Sun 08:46:08 AM 40.8275 -72.1147 230° Southwest 252 290 22,000  Level Boston Center
Sun 08:47:08 AM 40.7831 -72.1864 231° Southwest 252 290 22,000  Level Boston Center
Sun 08:48:09 AM 40.7331 -72.2639 230° Southwest 253 291 22,000  Level Boston Center
Sun 08:49:10 AM 40.6883 -72.3356 231° Southwest 254 292 22,000  Level Boston Center
Sun 08:50:10 AM 40.6422 -72.4050 229° Southwest 253 291 22,000  Level Boston Center
Sun 08:51:11 AM 40.5975 -72.4761 230° Southwest 252 290 22,000  Level Boston Center
Sun 08:52:11 AM 40.5517 -72.5467 229° Southwest 254 292 22,000 -446 Level Boston Center
Sun 08:53:12 AM 40.5069 -72.6169 230° Southwest 253 291 21,100 -992 Descending Boston Center
Sun 08:54:12 AM 40.4617 -72.6864 229° Southwest 250 288 20,000 -545 Descending Boston Center
Sun 08:55:13 AM 40.4181 -72.7550 230° Southwest 247 284 20,000  Level Boston Center
Sun 08:56:14 AM 40.3725 -72.8242 229° Southwest 249 287 20,000  Level Boston Center
Sun 08:57:14 AM 40.3267 -72.8942 229° Southwest 252 290 20,000  Level Boston Center
Sun 08:57:46 AM 40.3036 -72.9308 231° Southwest 252 290 20,000  Level New York Center
Sun 08:58:47 AM 40.2581 -73.0008 230° Southwest 253 291 20,000  Level New York Center
Sun 08:59:49 AM 40.2039 -73.0831 229° Southwest 250 288 20,000  Level New York Center
Sun 09:00:50 AM 40.1594 -73.1528 230° Southwest 250 288 20,000  Level New York Center
Sun 09:01:51 AM 40.1133 -73.2206 228° Southwest 250 288 20,000  Level New York Center
Sun 09:02:53 AM 40.0689 -73.2900 230° Southwest 250 288 20,000  Level New York Center
Sun 09:03:54 AM 40.0239 -73.3578 229° Southwest 249 287 20,000  Level New York Center
Sun 09:04:55 AM 39.9769 -73.4256 228° Southwest 250 288 20,000  Level New York Center
Sun 09:05:57 AM 39.9281 -73.5000 229° Southwest 250 288 20,000  Level New York Center
Sun 09:06:58 AM 39.8828 -73.5689 229° Southwest 250 288 20,000  Level New York Center
Sun 09:07:59 AM 39.8392 -73.6389 231° Southwest 250 288 20,000  Level New York Center
Sun 09:09:00 AM 39.7958 -73.7100 232° Southwest 250 288 20,000  Level New York Center
Sun 09:10:02 AM 39.7511 -73.7789 230° Southwest 251 289 20,000 -49 Level New York Center
Sun 09:11:03 AM 39.7053 -73.8503 230° Southwest 257 296 19,900 -836 Descending New York Center
Sun 09:12:04 AM 39.6586 -73.9281 232° Southwest 246 283 18,300 -1,415 Descending New York Center
Sun 09:13:06 AM 39.6128 -73.9989 230° Southwest 245 282 17,000 -1,463 Descending New York Center
Sun 09:14:07 AM 39.5667 -74.0711 230° Southwest 247 284 15,300 -1,475 Descending New York Center
Sun 09:15:08 AM 39.5283 -74.1392 234° Southwest 242 278 14,000 -634 Descending New York Center
Sun 09:16:10 AM 39.5261 -74.2225 268° West 220 253 14,000 -49 Level New York Center
Sun 09:17:11 AM 39.5275 -74.3097 271° West 232 267 13,900  Descending New York Center
Sun 09:18:12 AM 39.5289 -74.3892 271° West 228 262 14,000  Climbing New York Center
Sun 09:19:14 AM 39.5300 -74.4722 271° West 233 268 13,900 -780 Descending New York Center
Sun 09:20:15 AM 39.5308 -74.5547 271° West 231 266 12,400 -1,463 Descending New York Center
Sun 09:21:17 AM 39.5322 -74.6342 271° West 222 255 10,900 -1,515 Descending New York Center
Sun 09:21:54 AM 39.5333 -74.7000 271° West 219 252 9,900 -1,237 Descending Philadelphia TRACON
Sun 09:22:54 AM 39.5333 -74.7667 270° West 215 247 8,900 -950 Descending Philadelphia TRACON
Sun 09:23:54 AM 39.5500 -74.8500 285° West 219 252 8,000 -800 Descending Philadelphia TRACON
Sun 09:24:54 AM 39.5667 -74.9167 288° West 217 250 7,300 -950 Descending Philadelphia TRACON
Sun 09:25:54 AM 39.6000 -74.9833 303° West 219 252 6,100 -900 Descending Philadelphia TRACON
Sun 09:26:54 AM 39.6333 -75.0500 303° West 217 250 5,500 -1,050 Descending Philadelphia TRACON
Sun 09:27:54 AM 39.6667 -75.1000 311° West 209 241 4,000 -1,400 Descending Philadelphia TRACON
Sun 09:28:54 AM 39.7167 -75.1500 322° Northwest 218 251 2,700 -1,150 Descending Philadelphia TRACON
Sun 09:29:54 AM 39.7667 -75.1833 333° Northwest 174 200 1,700 -750 Descending Philadelphia TRACON
Sun 09:30:54 AM 39.8167 -75.2000 346° North 159 183 1,200 -550 Descending Philadelphia TRACON
Sun 09:31:54 AM 39.8500 -75.2167 339° North 107 123 600 -413 Descending Philadelphia TRACON
Sun 09:33:34 AM 39.8875 -75.2381 336° Northwest 120 138 100 -300 Descending New York Center

Login

Don't have an account? Register now (free) for customized features, flight alerts, and more!